Super Servant 4 — PJPO — position and weather

sailwx.info

Track history (hours):
 
Tides and Currents Weather Stations Pressure Air Temp Water Temp Dewpoint Dewpoint Depression Visibility Wind Speed Wind Dir Waves Ship Positions

Super Servant 4

Last reported at 2014-Jun-04 03:14 UTC. Time now 2014-Aug-27 13:13 UTC.
Position N 36°25' E 014°47'.
Warning: this ship's position is months out of date.

Length 139 m; beam 32 m.

Type: Cargo ship. MMSI: 306157000.

Date/timePositionNaut miles runAvg speedWind from/ knotsBaromVisibWave heightAir tempDewpointWater temp
2014-Jun-04 03:14N 36°25' E 014°47'710.1
2014-Jun-04 02:33N 36°25' E 014°39'1010.3
2014-Jun-04 01:33N 36°27' E 014°26'1010.4
2014-Jun-04 00:33N 36°28' E 014°13'1110.8
2014-Jun-03 23:33N 36°31' E 014°00'1211.6
2014-Jun-03 22:33N 36°35' E 013°46'2511.8
2014-Jun-03 20:25N 36°40' E 013°16'46411.9
2014-Jun-02 05:27N 38°46' E 003°51'1010.7
2014-Jun-02 04:33N 38°50' E 003°40'1111.3
2014-Jun-02 03:33N 38°54' E 003°26'1211.6
2014-Jun-02 02:33N 38°58' E 003°12'1211.6
2014-Jun-02 01:32N 39°02' E 002°58'1111.0
2014-Jun-02 00:33N 39°10' E 002°48'1212.1
2014-Jun-01 23:33N 39°21' E 002°43'1211.6
2014-Jun-01 22:33N 39°32' E 002°39'1 1.0
2014-Jun-01 21:32N 39°33' E 002°38'0 0.0
2014-Jun-01 20:32N 39°33' E 002°38'0 0.0
2014-Jun-01 19:32N 39°33' E 002°38'0 0.0
2014-Jun-01 18:32N 39°33' E 002°38'0 0.0
2014-Jun-01 17:32N 39°33' E 002°38'0 0.0
2014-Jun-01 16:32N 39°33' E 002°38'0 0.0
2014-Jun-01 15:32N 39°33' E 002°38'0 0.0
2014-Jun-01 14:32N 39°33' E 002°38'0 0.0
2014-Jun-01 13:32N 39°33' E 002°38'0 0.0
2014-Jun-01 12:32N 39°33' E 002°38'0 0.0
2014-Jun-01 11:32N 39°33' E 002°38'0 0.0
2014-Jun-01 10:32N 39°33' E 002°38'0 0.0
2014-Jun-01 09:32N 39°33' E 002°38'0 0.0
2014-Jun-01 08:33N 39°33' E 002°38'0 0.0
2014-Jun-01 07:32N 39°33' E 002°38'0 0.0
2014-Jun-01 06:32N 39°33' E 002°38'0 0.0
2014-Jun-01 05:32N 39°33' E 002°38'0 0.0
2014-Jun-01 04:32N 39°33' E 002°38'0 0.0
2014-Jun-01 03:32N 39°33' E 002°38'0 0.0
2014-Jun-01 02:32N 39°33' E 002°38'0 0.0
2014-Jun-01 01:32N 39°33' E 002°38'0 0.0
2014-Jun-01 00:32N 39°33' E 002°38'0 0.0
2014-May-31 23:32N 39°33' E 002°38'0 0.0
2014-May-31 22:32N 39°33' E 002°38'0 0.0
2014-May-31 21:32N 39°33' E 002°38'0 0.0
2014-May-31 18:32N 39°33' E 002°38'0 0.0
2014-May-31 17:32N 39°33' E 002°38'0 0.0
2014-May-31 16:17N 39°33' E 002°38'0 0.0
2014-May-31 15:22N 39°33' E 002°38'0 0.0
2014-May-31 14:32N 39°33' E 002°38'0 0.0
2014-May-31 13:32N 39°33' E 002°38'0 0.0
2014-May-31 12:32N 39°33' E 002°38'0 0.0
2014-May-31 11:32N 39°33' E 002°38'0 0.1
2014-May-31 10:33N 39°33' E 002°38'7 6.8
2014-May-31 09:33N 39°27' E 002°34'1211.6
2014-May-31 08:33N 39°18' E 002°25'1211.9
2014-May-31 07:33N 39°09' E 002°15'1212.5
2014-May-31 06:33N 38°59' E 002°05'1111.5
2014-May-31 05:33N 38°51' E 001°55'1212.0
2014-May-31 04:33N 38°41' E 001°46'11111.9
2014-May-30 19:12N 37°34' W 000°07'10612.2
2014-May-30 10:33N 36°32' W 001°54'  
2014-May-26 23:10N 31°55' W 016°55'1111.3
2014-May-26 22:10N 31°53' W 017°08'211.4
2014-May-26 21:58N 31°53' W 017°11'  
Track history (hours):
 
Tides and Currents Weather Stations Pressure Air Temp Water Temp Dewpoint Dewpoint Depression Visibility Wind Speed Wind Dir Waves Ship Positions

Super Servant 4

Last reported at 2014-Jun-04 03:14 UTC. Time now 2014-Aug-27 13:13 UTC.
Position N 36°25' E 014°47'.
Warning: this ship's position is months out of date.

Length 139 m; beam 32 m.

Type: Cargo ship. MMSI: 306157000.

Date/timePositionNaut miles runAvg speedWind from/ knotsBaromVisibWave heightAir tempDewpointWater temp
2014-Jun-04 03:14N 36°25' E 014°47'710.1
2014-Jun-04 02:33N 36°25' E 014°39'1010.3
2014-Jun-04 01:33N 36°27' E 014°26'1010.4
2014-Jun-04 00:33N 36°28' E 014°13'1110.8
2014-Jun-03 23:33N 36°31' E 014°00'1211.6
2014-Jun-03 22:33N 36°35' E 013°46'2511.8
2014-Jun-03 20:25N 36°40' E 013°16'46411.9
2014-Jun-02 05:27N 38°46' E 003°51'1010.7
2014-Jun-02 04:33N 38°50' E 003°40'1111.3
2014-Jun-02 03:33N 38°54' E 003°26'1211.6
2014-Jun-02 02:33N 38°58' E 003°12'1211.6
2014-Jun-02 01:32N 39°02' E 002°58'1111.0
2014-Jun-02 00:33N 39°10' E 002°48'1212.1
2014-Jun-01 23:33N 39°21' E 002°43'1211.6
2014-Jun-01 22:33N 39°32' E 002°39'1 1.0
2014-Jun-01 21:32N 39°33' E 002°38'0 0.0
2014-Jun-01 20:32N 39°33' E 002°38'0 0.0
2014-Jun-01 19:32N 39°33' E 002°38'0 0.0
2014-Jun-01 18:32N 39°33' E 002°38'0 0.0
2014-Jun-01 17:32N 39°33' E 002°38'0 0.0
2014-Jun-01 16:32N 39°33' E 002°38'0 0.0
2014-Jun-01 15:32N 39°33' E 002°38'0 0.0
2014-Jun-01 14:32N 39°33' E 002°38'0 0.0
2014-Jun-01 13:32N 39°33' E 002°38'0 0.0
2014-Jun-01 12:32N 39°33' E 002°38'0 0.0
2014-Jun-01 11:32N 39°33' E 002°38'0 0.0
2014-Jun-01 10:32N 39°33' E 002°38'0 0.0
2014-Jun-01 09:32N 39°33' E 002°38'0 0.0
2014-Jun-01 08:33N 39°33' E 002°38'0 0.0
2014-Jun-01 07:32N 39°33' E 002°38'0 0.0
2014-Jun-01 06:32N 39°33' E 002°38'0 0.0
2014-Jun-01 05:32N 39°33' E 002°38'0 0.0
2014-Jun-01 04:32N 39°33' E 002°38'0 0.0
2014-Jun-01 03:32N 39°33' E 002°38'0 0.0
2014-Jun-01 02:32N 39°33' E 002°38'0 0.0
2014-Jun-01 01:32N 39°33' E 002°38'0 0.0
2014-Jun-01 00:32N 39°33' E 002°38'0 0.0
2014-May-31 23:32N 39°33' E 002°38'0 0.0
2014-May-31 22:32N 39°33' E 002°38'0 0.0
2014-May-31 21:32N 39°33' E 002°38'0 0.0
2014-May-31 18:32N 39°33' E 002°38'0 0.0
2014-May-31 17:32N 39°33' E 002°38'0 0.0
2014-May-31 16:17N 39°33' E 002°38'0 0.0
2014-May-31 15:22N 39°33' E 002°38'0 0.0
2014-May-31 14:32N 39°33' E 002°38'0 0.0
2014-May-31 13:32N 39°33' E 002°38'0 0.0
2014-May-31 12:32N 39°33' E 002°38'0 0.0
2014-May-31 11:32N 39°33' E 002°38'0 0.1
2014-May-31 10:33N 39°33' E 002°38'7 6.8
2014-May-31 09:33N 39°27' E 002°34'1211.6
2014-May-31 08:33N 39°18' E 002°25'1211.9
2014-May-31 07:33N 39°09' E 002°15'1212.5
2014-May-31 06:33N 38°59' E 002°05'1111.5
2014-May-31 05:33N 38°51' E 001°55'1212.0
2014-May-31 04:33N 38°41' E 001°46'11111.9
2014-May-30 19:12N 37°34' W 000°07'10612.2
2014-May-30 10:33N 36°32' W 001°54'  
2014-May-26 23:10N 31°55' W 016°55'1111.3
2014-May-26 22:10N 31°53' W 017°08'211.4
2014-May-26 21:58N 31°53' W 017°11'  

Dump ship's entire track history